Time;durP1;ratioP1;P1;durP2;ratioP2;P2;SDS_P1;SDS_P2;PMS_P1;PMS_P2;Temp;Humidity;BMP_temperature;BMP_pressure;BME280_temperature;BME280_humidity;BME280_pressure;Samples;Min_cycle;Max_cycle;Signal;HPM_P1;HPM_P2
2023/03/17 00:01:04;;;;;;;6.85;5.25;;;;;;;;;;4973929;28;20035;-76
2023/03/17 00:03:33;;;;;;;7.72;4.95;;;;;;;;;;4974874;28;20118;-76
2023/03/17 00:06:00;;;;;;;6.63;4.90;;;;;;;;;;4974542;28;20438;-76
2023/03/17 00:08:27;;;;;;;8.63;5.03;;;;;;;;;;4973355;28;20490;-76
2023/03/17 00:10:54;;;;;;;7.90;4.70;;;;;;;;;;4974638;28;20039;-76
2023/03/17 00:13:20;;;;;;;7.30;4.90;;;;;;;;;;4959635;28;20047;-76
2023/03/17 00:15:48;;;;;;;7.65;5.20;;;;;;;;;;4979355;28;20049;-76
2023/03/17 00:18:16;;;;;;;6.80;5.03;;;;;;;;;;4976162;28;20050;-76
2023/03/17 00:20:42;;;;;;;7.70;4.70;;;;;;;;;;4974144;28;20086;-76
2023/03/17 00:23:11;;;;;;;7.68;5.10;;;;;;;;;;4974192;28;20073;-76
2023/03/17 00:25:41;;;;;;;5.80;4.72;;;;;;;;;;4974243;28;20043;-76
2023/03/17 00:28:10;;;;;;;6.45;4.70;;;;;;;;;;4972883;28;20050;-76
2023/03/17 00:30:36;;;;;;;6.93;4.53;;;;;;;;;;4958379;28;20051;-76
2023/03/17 00:33:02;;;;;;;7.25;4.90;;;;;;;;;;4970033;28;20166;-76
2023/03/17 00:35:28;;;;;;;7.32;4.68;;;;;;;;;;4974174;28;20126;-76
2023/03/17 00:37:56;;;;;;;7.07;5.13;;;;;;;;;;4974873;28;20496;-76
2023/03/17 00:40:28;;;;;;;10.88;5.18;;;;;;;;;;4973438;28;20070;-76
2023/03/17 00:42:54;;;;;;;7.95;5.18;;;;;;;;;;4974144;28;20458;-76
2023/03/17 00:45:22;;;;;;;6.72;5.05;;;;;;;;;;4972554;28;20058;-76
2023/03/17 00:47:49;;;;;;;6.68;4.97;;;;;;;;;;4974053;28;20054;-76
2023/03/17 00:50:17;;;;;;;9.32;5.30;;;;;;;;;;4973861;28;20165;-76
2023/03/17 00:52:44;;;;;;;6.97;4.30;;;;;;;;;;4974080;28;20329;-76
2023/03/17 00:55:11;;;;;;;7.43;5.03;;;;;;;;;;4974923;28;20047;-76
2023/03/17 00:57:37;;;;;;;9.70;5.38;;;;;;;;;;4974674;28;20065;-76
2023/03/17 01:00:04;;;;;;;6.95;4.80;;;;;;;;;;4974310;28;20043;-76
2023/03/17 01:02:31;;;;;;;6.25;4.53;;;;;;;;;;4974189;28;20055;-76
2023/03/17 01:04:59;;;;;;;7.20;5.32;;;;;;;;;;4974075;28;20110;-76
2023/03/17 01:07:25;;;;;;;7.13;4.82;;;;;;;;;;4973357;28;20445;-76
2023/03/17 01:09:52;;;;;;;6.80;4.97;;;;;;;;;;4964427;28;20062;-76
2023/03/17 01:12:19;;;;;;;8.27;5.28;;;;;;;;;;4971761;28;20046;-76
2023/03/17 01:14:45;;;;;;;11.20;5.20;;;;;;;;;;4977036;28;20502;-76
2023/03/17 01:17:15;;;;;;;7.97;4.75;;;;;;;;;;4976892;28;20046;-76
2023/03/17 01:19:42;;;;;;;7.68;4.80;;;;;;;;;;4976167;28;20402;-76
2023/03/17 01:22:08;;;;;;;6.20;4.78;;;;;;;;;;4964560;28;20043;-76
2023/03/17 01:24:35;;;;;;;6.82;4.70;;;;;;;;;;4962802;28;20206;-76
2023/03/17 01:27:01;;;;;;;7.30;4.80;;;;;;;;;;4976303;28;20528;-76
2023/03/17 01:29:27;;;;;;;6.97;4.60;;;;;;;;;;4967110;28;20046;-76
2023/03/17 01:31:53;;;;;;;7.50;5.03;;;;;;;;;;4976751;28;20494;-76
2023/03/17 01:34:20;;;;;;;8.82;4.70;;;;;;;;;;4977491;28;20137;-76
2023/03/17 01:36:47;;;;;;;6.40;4.55;;;;;;;;;;4977492;28;20157;-76
2023/03/17 01:39:14;;;;;;;11.68;5.47;;;;;;;;;;4975811;28;20079;-76
2023/03/17 01:41:40;;;;;;;8.50;5.00;;;;;;;;;;4976674;28;20401;-76
2023/03/17 01:44:06;;;;;;;8.95;5.13;;;;;;;;;;4976459;28;20050;-76
2023/03/17 01:46:35;;;;;;;7.70;5.03;;;;;;;;;;4976950;28;20038;-76
2023/03/17 01:49:08;;;;;;;7.70;4.40;;;;;;;;;;4975189;28;20051;-76
2023/03/17 01:51:38;;;;;;;6.68;5.18;;;;;;;;;;4976223;28;20102;-76
2023/03/17 01:54:07;;;;;;;6.45;4.85;;;;;;;;;;4975192;28;20034;-76
2023/03/17 01:56:34;;;;;;;6.90;4.38;;;;;;;;;;4976933;28;20051;-76
2023/03/17 01:59:02;;;;;;;6.05;4.25;;;;;;;;;;4976540;28;20039;-76
2023/03/17 02:01:31;;;;;;;7.03;4.47;;;;;;;;;;4976689;28;20043;-76
2023/03/17 02:03:58;;;;;;;6.20;4.03;;;;;;;;;;4976209;28;20105;-76
2023/03/17 02:06:24;;;;;;;5.30;4.03;;;;;;;;;;4981599;28;20125;-76
2023/03/17 02:08:51;;;;;;;6.55;4.45;;;;;;;;;;4976284;28;20047;-76
2023/03/17 02:11:17;;;;;;;5.15;4.07;;;;;;;;;;4976430;28;20406;-76
2023/03/17 02:13:46;;;;;;;7.65;4.10;;;;;;;;;;4976232;28;20093;-76
2023/03/17 02:16:16;;;;;;;5.88;4.38;;;;;;;;;;4976392;28;20137;-76
2023/03/17 02:18:43;;;;;;;5.47;4.20;;;;;;;;;;4990518;28;20390;-76
2023/03/17 02:21:32;;;;;;;8.48;4.28;;;;;;;;;;4976481;28;20584;-76
2023/03/17 02:24:00;;;;;;;6.43;3.90;;;;;;;;;;4975251;28;20074;-76
2023/03/17 02:26:28;;;;;;;5.60;3.92;;;;;;;;;;4975560;28;20054;-76
2023/03/17 02:28:54;;;;;;;5.60;4.00;;;;;;;;;;4974823;28;20107;-76
2023/03/17 02:31:20;;;;;;;9.25;4.65;;;;;;;;;;4975831;28;20417;-76
2023/03/17 02:33:46;;;;;;;6.13;4.00;;;;;;;;;;4975914;28;20178;-76
2023/03/17 02:36:12;;;;;;;5.47;4.35;;;;;;;;;;4975390;28;20458;-76
2023/03/17 02:38:38;;;;;;;7.28;3.90;;;;;;;;;;4975824;28;20511;-76
2023/03/17 02:41:06;;;;;;;5.50;4.00;;;;;;;;;;4971209;28;20050;-76
2023/03/17 02:43:32;;;;;;;7.45;4.00;;;;;;;;;;4975904;28;20425;-76
2023/03/17 02:45:58;;;;;;;5.50;4.13;;;;;;;;;;4975084;28;20047;-76
2023/03/17 02:48:24;;;;;;;5.85;4.15;;;;;;;;;;4975464;28;20064;-76
2023/03/17 02:50:50;;;;;;;5.65;3.95;;;;;;;;;;4975221;28;20093;-76
2023/03/17 02:53:16;;;;;;;5.68;4.15;;;;;;;;;;4975307;28;20051;-77
2023/03/17 02:55:42;;;;;;;7.40;4.50;;;;;;;;;;4975420;28;20074;-76
2023/03/17 02:58:08;;;;;;;5.85;4.15;;;;;;;;;;4975466;28;20395;-76
2023/03/17 03:00:35;;;;;;;7.90;4.50;;;;;;;;;;4967437;28;20093;-76
2023/03/17 03:03:01;;;;;;;6.45;4.18;;;;;;;;;;4975935;28;20047;-76
2023/03/17 03:05:27;;;;;;;6.60;4.50;;;;;;;;;;4981835;28;20116;-76
2023/03/17 03:07:54;;;;;;;5.20;4.32;;;;;;;;;;4983651;28;20042;-76
2023/03/17 03:10:20;;;;;;;7.82;4.30;;;;;;;;;;4969639;28;20092;-76
2023/03/17 03:12:46;;;;;;;7.57;4.43;;;;;;;;;;4974509;28;20066;-76
2023/03/17 03:15:12;;;;;;;6.78;4.18;;;;;;;;;;4974702;28;20390;-76
2023/03/17 03:17:38;;;;;;;6.93;4.63;;;;;;;;;;4975014;28;20514;-76
2023/03/17 03:20:05;;;;;;;8.75;5.40;;;;;;;;;;4979128;28;20058;-75
2023/03/17 03:22:31;;;;;;;8.02;4.70;;;;;;;;;;4979991;28;20179;-75
2023/03/17 03:24:57;;;;;;;7.15;4.32;;;;;;;;;;4976485;28;20042;-76
2023/03/17 03:27:23;;;;;;;6.13;4.93;;;;;;;;;;4976953;28;20058;-75
2023/03/17 03:29:49;;;;;;;6.55;4.07;;;;;;;;;;4976177;28;20051;-76
2023/03/17 03:32:15;;;;;;;5.38;4.20;;;;;;;;;;4974574;28;20086;-76
2023/03/17 03:34:41;;;;;;;4.95;4.28;;;;;;;;;;4973302;28;20047;-76
2023/03/17 03:37:08;;;;;;;7.43;4.43;;;;;;;;;;4974707;28;20039;-76
2023/03/17 03:39:34;;;;;;;6.13;4.30;;;;;;;;;;4974764;28;20039;-75
2023/03/17 03:42:00;;;;;;;7.20;4.18;;;;;;;;;;4975345;28;20078;-76
2023/03/17 03:44:26;;;;;;;6.38;4.05;;;;;;;;;;4961435;28;20214;-76
2023/03/17 03:46:52;;;;;;;7.55;4.22;;;;;;;;;;4974689;28;20174;-76
2023/03/17 03:49:18;;;;;;;6.38;4.25;;;;;;;;;;4974683;28;20063;-76
2023/03/17 03:51:44;;;;;;;6.63;4.18;;;;;;;;;;4974876;28;20122;-76
2023/03/17 03:54:10;;;;;;;6.32;4.07;;;;;;;;;;4974330;28;20043;-75
2023/03/17 03:56:36;;;;;;;5.13;4.15;;;;;;;;;;4975071;28;20039;-76
2023/03/17 03:59:02;;;;;;;4.88;4.07;;;;;;;;;;4974814;28;20078;-76
2023/03/17 04:01:28;;;;;;;7.10;4.03;;;;;;;;;;4974658;28;20051;-76
2023/03/17 04:03:54;;;;;;;5.80;4.05;;;;;;;;;;4974466;28;20050;-76
2023/03/17 04:06:20;;;;;;;4.97;4.00;;;;;;;;;;4973281;28;20036;-76
2023/03/17 04:08:46;;;;;;;5.70;4.10;;;;;;;;;;4964887;28;20125;-76
2023/03/17 04:11:12;;;;;;;5.00;4.05;;;;;;;;;;4974915;28;20078;-76
2023/03/17 04:13:39;;;;;;;5.20;4.20;;;;;;;;;;4974756;28;20090;-76
2023/03/17 04:16:05;;;;;;;6.28;4.53;;;;;;;;;;4974778;28;20047;-76
2023/03/17 04:18:31;;;;;;;6.50;4.53;;;;;;;;;;4973149;28;20050;-76
2023/03/17 04:20:57;;;;;;;4.82;4.00;;;;;;;;;;4973737;28;20196;-76
2023/03/17 04:23:23;;;;;;;6.57;4.25;;;;;;;;;;4973599;28;20142;-76
2023/03/17 04:25:50;;;;;;;7.22;4.60;;;;;;;;;;4974393;28;20083;-76
2023/03/17 04:28:16;;;;;;;6.47;4.20;;;;;;;;;;4974435;28;20051;-76
2023/03/17 04:30:42;;;;;;;5.68;4.53;;;;;;;;;;4974294;28;20046;-76
2023/03/17 04:33:09;;;;;;;6.45;4.40;;;;;;;;;;4973855;28;20079;-76
2023/03/17 04:35:35;;;;;;;7.60;4.97;;;;;;;;;;4974322;28;20513;-76
2023/03/17 04:38:01;;;;;;;7.72;4.85;;;;;;;;;;4954702;28;20493;-76
2023/03/17 04:40:27;;;;;;;6.47;4.95;;;;;;;;;;4972149;28;20051;-76
2023/03/17 04:42:53;;;;;;;7.07;4.22;;;;;;;;;;4974031;28;20055;-76
2023/03/17 04:45:19;;;;;;;6.40;4.45;;;;;;;;;;4973375;28;20465;-76
2023/03/17 04:47:46;;;;;;;7.28;4.53;;;;;;;;;;4977508;28;20062;-76
2023/03/17 04:50:12;;;;;;;6.53;4.82;;;;;;;;;;4977860;28;20038;-76
2023/03/17 04:52:39;;;;;;;6.63;4.57;;;;;;;;;;4976863;28;20709;-76
2023/03/17 04:55:07;;;;;;;5.88;4.10;;;;;;;;;;4971900;28;20051;-76
2023/03/17 04:57:33;;;;;;;5.65;4.45;;;;;;;;;;4978149;28;20050;-76
2023/03/17 04:59:59;;;;;;;6.32;4.20;;;;;;;;;;4977231;28;20121;-76
2023/03/17 05:02:26;;;;;;;6.22;4.05;;;;;;;;;;4970856;28;20110;-76
2023/03/17 05:04:53;;;;;;;6.00;4.18;;;;;;;;;;4977372;28;20425;-76
2023/03/17 05:07:19;;;;;;;7.90;4.28;;;;;;;;;;4977263;28;20425;-76
2023/03/17 05:09:45;;;;;;;5.13;3.80;;;;;;;;;;4988484;28;20140;-76
2023/03/17 05:12:12;;;;;;;7.93;4.63;;;;;;;;;;4990379;28;20047;-76
2023/03/17 05:14:38;;;;;;;7.30;4.55;;;;;;;;;;4977517;28;20039;-76
2023/03/17 05:17:04;;;;;;;6.35;4.43;;;;;;;;;;4977361;28;20122;-76
2023/03/17 05:19:30;;;;;;;7.15;4.60;;;;;;;;;;4976113;28;20058;-76
2023/03/17 05:21:56;;;;;;;5.78;4.18;;;;;;;;;;4977407;28;20493;-76
2023/03/17 05:24:22;;;;;;;6.53;4.05;;;;;;;;;;4975083;28;20066;-76
2023/03/17 05:26:48;;;;;;;8.25;4.35;;;;;;;;;;4973653;28;20126;-76
2023/03/17 05:29:14;;;;;;;6.75;4.07;;;;;;;;;;4960878;28;20042;-76
2023/03/17 05:31:41;;;;;;;6.38;4.25;;;;;;;;;;4977213;28;20474;-76
2023/03/17 05:34:07;;;;;;;6.43;4.00;;;;;;;;;;4977360;28;20079;-76
2023/03/17 05:36:33;;;;;;;6.25;4.40;;;;;;;;;;4977198;28;20155;-76
2023/03/17 05:38:59;;;;;;;6.10;4.13;;;;;;;;;;4974602;28;20438;-76
2023/03/17 05:41:25;;;;;;;6.40;4.05;;;;;;;;;;4967249;28;20077;-76
2023/03/17 05:43:51;;;;;;;7.13;4.65;;;;;;;;;;4976540;28;20045;-75
2023/03/17 05:46:17;;;;;;;7.40;4.53;;;;;;;;;;4976669;28;20057;-76
2023/03/17 05:48:43;;;;;;;6.40;4.57;;;;;;;;;;4976731;28;20060;-76
2023/03/17 05:51:10;;;;;;;7.20;4.30;;;;;;;;;;4976603;28;20046;-76
2023/03/17 05:53:36;;;;;;;8.05;4.88;;;;;;;;;;4976240;28;20050;-75
2023/03/17 05:56:02;;;;;;;9.00;5.13;;;;;;;;;;4976478;28;20051;-76
2023/03/17 05:58:28;;;;;;;10.18;5.28;;;;;;;;;;4975295;28;20047;-76
2023/03/17 06:00:55;;;;;;;6.72;4.47;;;;;;;;;;4976898;28;20074;-76
2023/03/17 06:03:21;;;;;;;8.68;5.03;;;;;;;;;;4974812;28;20093;-76
2023/03/17 06:05:47;;;;;;;8.90;4.90;;;;;;;;;;4975531;28;20042;-76
2023/03/17 06:08:13;;;;;;;8.02;4.40;;;;;;;;;;4976667;28;20043;-76
2023/03/17 06:10:40;;;;;;;6.70;4.53;;;;;;;;;;4976078;28;20062;-76
2023/03/17 06:13:06;;;;;;;7.60;4.68;;;;;;;;;;4976192;28;20049;-76
2023/03/17 06:15:32;;;;;;;7.63;4.70;;;;;;;;;;4976065;28;20402;-76
2023/03/17 06:17:58;;;;;;;6.07;4.82;;;;;;;;;;5007430;28;20113;-76
2023/03/17 06:20:24;;;;;;;6.82;4.78;;;;;;;;;;4976066;28;20055;-76
2023/03/17 06:22:50;;;;;;;8.60;4.60;;;;;;;;;;4990978;28;20119;-76
2023/03/17 06:25:16;;;;;;;12.88;5.55;;;;;;;;;;4979819;28;20123;-75
2023/03/17 06:27:43;;;;;;;6.78;4.68;;;;;;;;;;4981356;28;20055;-76
2023/03/17 06:30:10;;;;;;;6.10;4.88;;;;;;;;;;4977195;28;20054;-76
2023/03/17 06:32:36;;;;;;;7.38;4.40;;;;;;;;;;4976301;28;20053;-76
2023/03/17 06:35:04;;;;;;;7.25;4.88;;;;;;;;;;4976208;28;20069;-76
2023/03/17 06:37:30;;;;;;;6.57;4.47;;;;;;;;;;4975035;28;20505;-75
2023/03/17 06:39:57;;;;;;;5.47;3.90;;;;;;;;;;4990020;28;20355;-76
2023/03/17 06:42:23;;;;;;;7.07;4.60;;;;;;;;;;4974505;28;20537;-76
2023/03/17 06:44:51;;;;;;;6.55;4.20;;;;;;;;;;4975263;28;20050;-76
2023/03/17 06:47:18;;;;;;;6.63;4.82;;;;;;;;;;4970227;28;20058;-76
2023/03/17 06:49:45;;;;;;;6.93;4.60;;;;;;;;;;4975889;28;20047;-76
2023/03/17 06:52:12;;;;;;;5.43;4.30;;;;;;;;;;4975483;28;20051;-76
2023/03/17 06:54:38;;;;;;;7.55;4.60;;;;;;;;;;4985682;28;20058;-76
2023/03/17 06:57:04;;;;;;;9.75;5.45;;;;;;;;;;4976194;28;20082;-76
2023/03/17 06:59:30;;;;;;;7.43;4.78;;;;;;;;;;4975533;28;20054;-76
2023/03/17 07:01:57;;;;;;;8.90;5.10;;;;;;;;;;4984780;28;20042;-76
2023/03/17 07:04:24;;;;;;;5.90;4.53;;;;;;;;;;4976149;28;20059;-76
2023/03/17 07:06:50;;;;;;;7.38;4.60;;;;;;;;;;4974808;28;20105;-76
2023/03/17 07:09:16;;;;;;;9.85;4.85;;;;;;;;;;4973998;28;20043;-78
2023/03/17 07:11:42;;;;;;;7.97;4.82;;;;;;;;;;4974151;28;20039;-76
2023/03/17 07:14:08;;;;;;;5.35;4.20;;;;;;;;;;4989368;28;20047;-76
2023/03/17 07:16:35;;;;;;;4.97;4.25;;;;;;;;;;4973514;28;20077;-76
2023/03/17 07:19:01;;;;;;;6.43;4.78;;;;;;;;;;4972654;28;20054;-76
2023/03/17 07:21:27;;;;;;;9.85;4.55;;;;;;;;;;4971694;28;20065;-76
2023/03/17 07:23:53;;;;;;;5.35;4.13;;;;;;;;;;4971236;28;20130;-76
2023/03/17 07:26:19;;;;;;;7.70;4.60;;;;;;;;;;4973736;28;20445;-76
2023/03/17 07:28:45;;;;;;;8.73;4.30;;;;;;;;;;4961460;28;20035;-76
2023/03/17 07:31:13;;;;;;;7.13;4.43;;;;;;;;;;4975285;28;20047;-77
2023/03/17 07:33:39;;;;;;;5.43;4.25;;;;;;;;;;4975309;28;20171;-76
2023/03/17 07:36:06;;;;;;;6.68;4.18;;;;;;;;;;4974430;28;20046;-76
2023/03/17 07:38:33;;;;;;;6.43;4.60;;;;;;;;;;4974787;28;20050;-77
2023/03/17 07:40:59;;;;;;;7.57;4.40;;;;;;;;;;4974251;28;20039;-77
2023/03/17 07:43:25;;;;;;;5.85;4.38;;;;;;;;;;4974737;28;20050;-76
2023/03/17 07:45:55;;;;;;;6.82;4.32;;;;;;;;;;4974753;28;20125;-76
2023/03/17 07:48:21;;;;;;;7.03;4.50;;;;;;;;;;4974615;28;20141;-76
2023/03/17 07:50:47;;;;;;;7.22;4.40;;;;;;;;;;4974915;28;20102;-77
2023/03/17 07:53:13;;;;;;;9.70;5.50;;;;;;;;;;4972898;28;20094;-77
2023/03/17 07:55:40;;;;;;;7.35;5.20;;;;;;;;;;4975144;28;20046;-76
2023/03/17 07:58:06;;;;;;;8.57;4.75;;;;;;;;;;4973775;28;20050;-76
2023/03/17 08:00:33;;;;;;;5.95;3.83;;;;;;;;;;4974850;28;20118;-76
2023/03/17 08:02:59;;;;;;;5.45;3.90;;;;;;;;;;4974429;28;20043;-77
2023/03/17 08:05:25;;;;;;;5.75;3.92;;;;;;;;;;4974995;28;20046;-76
2023/03/17 08:07:52;;;;;;;6.53;4.63;;;;;;;;;;4973604;28;20143;-76
2023/03/17 08:10:18;;;;;;;6.22;4.65;;;;;;;;;;4974763;28;20046;-76
2023/03/17 08:12:44;;;;;;;4.75;3.78;;;;;;;;;;4974425;28;20161;-76
2023/03/17 08:15:11;;;;;;;5.65;3.97;;;;;;;;;;4975068;28;20047;-76
2023/03/17 08:17:38;;;;;;;5.25;4.10;;;;;;;;;;4973548;28;20053;-77
2023/03/17 08:20:04;;;;;;;10.18;4.18;;;;;;;;;;4974118;28;20421;-77
2023/03/17 08:22:31;;;;;;;6.68;4.30;;;;;;;;;;4978655;28;20057;-76
2023/03/17 08:24:57;;;;;;;5.82;4.20;;;;;;;;;;4978826;28;20576;-76
2023/03/17 08:27:23;;;;;;;8.27;4.20;;;;;;;;;;4965263;28;20046;-76
2023/03/17 08:29:50;;;;;;;5.20;3.90;;;;;;;;;;4978595;28;20402;-76
2023/03/17 08:32:16;;;;;;;5.18;3.90;;;;;;;;;;4979089;28;20494;-76
2023/03/17 08:34:43;;;;;;;7.10;4.30;;;;;;;;;;4977864;28;20042;-76
2023/03/17 08:37:10;;;;;;;7.15;4.30;;;;;;;;;;4977818;28;20047;-78
2023/03/17 08:39:36;;;;;;;5.53;3.97;;;;;;;;;;4977898;28;20050;-76
2023/03/17 08:42:02;;;;;;;5.63;4.10;;;;;;;;;;4978573;28;20077;-77
2023/03/17 08:44:29;;;;;;;6.93;4.60;;;;;;;;;;5010138;28;20055;-76
2023/03/17 08:46:55;;;;;;;7.65;4.47;;;;;;;;;;4978540;28;20478;-78
2023/03/17 08:49:21;;;;;;;6.20;4.25;;;;;;;;;;4977407;28;20421;-77
2023/03/17 08:51:48;;;;;;;6.32;4.40;;;;;;;;;;4978241;28;20071;-76
2023/03/17 08:54:14;;;;;;;6.50;4.72;;;;;;;;;;4975899;28;20116;-76
2023/03/17 08:56:41;;;;;;;6.95;4.63;;;;;;;;;;4977613;28;20505;-76
2023/03/17 08:59:07;;;;;;;5.90;4.45;;;;;;;;;;4992875;28;20051;-76
2023/03/17 09:01:33;;;;;;;8.05;5.07;;;;;;;;;;4973978;28;20125;-76
2023/03/17 09:04:00;;;;;;;7.50;4.70;;;;;;;;;;4961923;28;20537;-76
2023/03/17 09:06:26;;;;;;;6.90;4.50;;;;;;;;;;4978370;28;20053;-76
2023/03/17 09:08:55;;;;;;;9.70;5.03;;;;;;;;;;4977593;28;20051;-76
2023/03/17 09:11:23;;;;;;;5.95;4.43;;;;;;;;;;4979347;28;20066;-77
2023/03/17 09:13:49;;;;;;;7.53;4.40;;;;;;;;;;4976721;28;20053;-76
2023/03/17 09:16:16;;;;;;;7.38;4.72;;;;;;;;;;4977641;28;20042;-77
2023/03/17 09:18:43;;;;;;;6.45;4.68;;;;;;;;;;4977560;28;20050;-76
2023/03/17 09:21:09;;;;;;;6.78;5.05;;;;;;;;;;4975441;28;20061;-77
2023/03/17 09:23:35;;;;;;;9.57;5.25;;;;;;;;;;4976708;28;20054;-76
2023/03/17 09:26:02;;;;;;;6.50;4.55;;;;;;;;;;4975629;28;20085;-76
2023/03/17 09:28:28;;;;;;;6.93;5.15;;;;;;;;;;4977024;28;20617;-77
2023/03/17 09:31:01;;;;;;;7.45;5.10;;;;;;;;;;4978667;28;20406;-77
2023/03/17 09:33:27;;;;;;;7.03;4.90;;;;;;;;;;4981851;28;20078;-76
2023/03/17 09:35:55;;;;;;;7.63;5.05;;;;;;;;;;4964541;28;20074;-76
2023/03/17 09:38:22;;;;;;;7.30;4.95;;;;;;;;;;4976568;28;20057;-76
2023/03/17 09:40:57;;;;;;;8.75;4.70;;;;;;;;;;4976911;28;20050;-76
2023/03/17 09:43:41;;;;;;;5.78;4.38;;;;;;;;;;4976261;28;20049;-76
2023/03/17 09:46:26;;;;;;;5.15;4.55;;;;;;;;;;4977302;28;20062;-76
2023/03/17 09:49:02;;;;;;;7.18;4.65;;;;;;;;;;4976249;28;20516;-76
2023/03/17 09:51:31;;;;;;;5.38;4.10;;;;;;;;;;4977023;28;20422;-76
2023/03/17 09:53:58;;;;;;;5.40;3.90;;;;;;;;;;4976856;28;20042;-77
2023/03/17 09:56:26;;;;;;;7.13;4.50;;;;;;;;;;4977172;28;20082;-77
2023/03/17 09:58:54;;;;;;;7.70;4.85;;;;;;;;;;4976820;28;20085;-76
2023/03/17 10:01:21;;;;;;;7.82;5.03;;;;;;;;;;4976970;28;20047;-77
2023/03/17 10:03:49;;;;;;;7.25;4.25;;;;;;;;;;4974755;28;20137;-76
2023/03/17 10:06:15;;;;;;;5.75;4.22;;;;;;;;;;4989233;28;20070;-76
2023/03/17 10:08:48;;;;;;;7.18;4.70;;;;;;;;;;4996210;28;20489;-76
2023/03/17 10:11:34;;;;;;;5.85;4.47;;;;;;;;;;4990594;28;20125;-78
2023/03/17 10:14:02;;;;;;;6.80;4.60;;;;;;;;;;4976077;28;20129;-76
2023/03/17 10:16:37;;;;;;;6.20;4.45;;;;;;;;;;4976200;28;20057;-76
2023/03/17 10:19:16;;;;;;;6.82;4.72;;;;;;;;;;4976009;28;20053;-75
2023/03/17 10:21:51;;;;;;;5.85;4.50;;;;;;;;;;4976108;28;20154;-76
2023/03/17 10:24:18;;;;;;;6.73;5.33;;;;;;;;;;4977088;28;20089;-77
2023/03/17 10:26:48;;;;;;;7.45;4.68;;;;;;;;;;4977355;28;20049;-79
2023/03/17 10:29:16;;;;;;;5.75;4.40;;;;;;;;;;4977168;28;20105;-78
2023/03/17 10:31:43;;;;;;;7.28;4.90;;;;;;;;;;4976200;28;20421;-76
2023/03/17 10:34:13;;;;;;;6.93;4.93;;;;;;;;;;4976119;28;20104;-76
2023/03/17 10:36:44;;;;;;;6.47;5.32;;;;;;;;;;4976077;28;20145;-76
2023/03/17 10:39:13;;;;;;;8.82;5.60;;;;;;;;;;4976315;28;20050;-76
2023/03/17 10:41:40;;;;;;;7.80;5.00;;;;;;;;;;4966741;28;20058;-76
2023/03/17 10:44:20;;;;;;;9.02;5.30;;;;;;;;;;4955818;28;20094;-76
2023/03/17 10:46:52;;;;;;;7.43;5.20;;;;;;;;;;4956488;28;20044;-76
2023/03/17 10:49:21;;;;;;;6.47;5.03;;;;;;;;;;4956749;28;20043;-76
2023/03/17 10:51:51;;;;;;;7.10;5.47;;;;;;;;;;4958027;28;20569;-76
2023/03/17 10:54:18;;;;;;;10.95;5.32;;;;;;;;;;4976013;28;20054;-77
2023/03/17 10:56:46;;;;;;;8.57;5.68;;;;;;;;;;4975319;28;20046;-77
2023/03/17 10:59:20;;;;;;;7.43;5.45;;;;;;;;;;4975459;28;20047;-76
2023/03/17 11:01:49;;;;;;;8.68;5.70;;;;;;;;;;4975684;28;20045;-76
2023/03/17 11:04:20;;;;;;;6.05;5.43;;;;;;;;;;4975353;28;20047;-76
2023/03/17 11:06:51;;;;;;;7.05;5.65;;;;;;;;;;4975515;28;20082;-76
2023/03/17 11:09:18;;;;;;;7.60;5.65;;;;;;;;;;4975725;28;20489;-77
2023/03/17 11:11:49;;;;;;;7.20;5.47;;;;;;;;;;4973978;28;20054;-78
2023/03/17 11:14:17;;;;;;;8.55;5.80;;;;;;;;;;4976627;28;20049;-76
2023/03/17 11:16:54;;;;;;;8.07;5.53;;;;;;;;;;4974683;28;20054;-76
2023/03/17 11:19:22;;;;;;;8.95;5.95;;;;;;;;;;4975023;28;20047;-76
2023/03/17 11:21:58;;;;;;;8.90;5.70;;;;;;;;;;4974797;28;20097;-76
2023/03/17 11:24:29;;;;;;;7.75;6.13;;;;;;;;;;4976594;28;20118;-77
2023/03/17 11:27:04;;;;;;;9.05;5.97;;;;;;;;;;4976023;28;20074;-77
2023/03/17 11:29:33;;;;;;;8.55;6.15;;;;;;;;;;4974995;28;20074;-77
2023/03/17 11:32:10;;;;;;;9.05;5.82;;;;;;;;;;4974675;28;20049;-77
2023/03/17 11:34:55;;;;;;;9.20;5.85;;;;;;;;;;4974124;28;20146;-77
2023/03/17 11:37:30;;;;;;;8.65;6.15;;;;;;;;;;4974953;28;20050;-77
2023/03/17 11:39:59;;;;;;;8.90;6.00;;;;;;;;;;4974822;28;20054;-78
2023/03/17 11:42:26;;;;;;;7.85;6.32;;;;;;;;;;4974488;28;20572;-77
2023/03/17 11:44:52;;;;;;;7.35;6.30;;;;;;;;;;4973196;28;20056;-77
2023/03/17 11:47:30;;;;;;;8.18;6.35;;;;;;;;;;4974164;28;20082;-77
2023/03/17 11:50:20;;;;;;;8.98;6.47;;;;;;;;;;4974705;28;20109;-77
2023/03/17 11:53:06;;;;;;;8.30;5.93;;;;;;;;;;4953042;29;20106;-77
2023/03/17 11:55:48;;;;;;;8.07;6.40;;;;;;;;;;4953282;28;20102;-78
2023/03/17 11:58:19;;;;;;;8.57;6.22;;;;;;;;;;4953594;29;20158;-77
2023/03/17 12:00:51;;;;;;;7.20;5.68;;;;;;;;;;4953399;29;20534;-77
2023/03/17 12:03:20;;;;;;;8.68;6.03;;;;;;;;;;4953915;29;20133;-77
2023/03/17 12:05:49;;;;;;;10.55;6.97;;;;;;;;;;4953376;29;20043;-77
2023/03/17 12:08:28;;;;;;;9.73;7.03;;;;;;;;;;4953616;29;20087;-77
2023/03/17 12:10:56;;;;;;;9.40;6.28;;;;;;;;;;4937899;29;20063;-78
2023/03/17 12:13:25;;;;;;;8.20;5.97;;;;;;;;;;4955178;29;20055;-79
2023/03/17 12:16:18;;;;;;;8.80;6.28;;;;;;;;;;4950595;28;20047;-77
2023/03/17 12:18:51;;;;;;;11.15;6.57;;;;;;;;;;4950457;28;20052;-76
2023/03/17 12:21:24;;;;;;;10.13;6.80;;;;;;;;;;4972295;28;20058;-77
2023/03/17 12:24:00;;;;;;;9.25;6.90;;;;;;;;;;4936965;29;20129;-76
2023/03/17 12:26:38;;;;;;;10.82;7.03;;;;;;;;;;4953459;28;20140;-76
2023/03/17 12:29:13;;;;;;;8.13;6.05;;;;;;;;;;4957490;28;20062;-76
2023/03/17 12:31:43;;;;;;;9.35;6.78;;;;;;;;;;4974571;28;20458;-76
2023/03/17 12:34:19;;;;;;;8.90;6.82;;;;;;;;;;4974121;28;20077;-77
2023/03/17 12:36:46;;;;;;;9.80;7.10;;;;;;;;;;4974178;28;20049;-77
2023/03/17 12:39:24;;;;;;;10.48;6.85;;;;;;;;;;5005427;28;20409;-76
2023/03/17 12:41:55;;;;;;;8.95;7.05;;;;;;;;;;4974382;28;20054;-76
2023/03/17 12:44:40;;;;;;;9.57;7.05;;;;;;;;;;4978286;28;20057;-76
2023/03/17 12:47:25;;;;;;;8.90;6.68;;;;;;;;;;4977675;28;20047;-76
2023/03/17 12:50:08;;;;;;;7.60;6.47;;;;;;;;;;4976702;28;20053;-76
2023/03/17 12:52:34;;;;;;;9.88;7.00;;;;;;;;;;4990470;28;20050;-76
2023/03/17 12:55:01;;;;;;;9.65;7.15;;;;;;;;;;4974743;28;20101;-77
2023/03/17 12:57:29;;;;;;;10.52;7.13;;;;;;;;;;4973573;28;20497;-77
2023/03/17 13:00:04;;;;;;;10.00;7.00;;;;;;;;;;4974381;28;20047;-76
2023/03/17 13:02:38;;;;;;;8.88;7.25;;;;;;;;;;4974019;28;20051;-76
2023/03/17 13:05:09;;;;;;;9.18;7.22;;;;;;;;;;4973782;28;20050;-76
2023/03/17 13:07:41;;;;;;;7.82;6.82;;;;;;;;;;4975149;28;20102;-76
2023/03/17 13:10:10;;;;;;;10.95;7.28;;;;;;;;;;4978341;28;20047;-77
2023/03/17 13:12:40;;;;;;;10.95;7.53;;;;;;;;;;4977488;28;20046;-77
2023/03/17 13:15:26;;;;;;;8.73;7.15;;;;;;;;;;4977276;28;20047;-77
2023/03/17 13:18:13;;;;;;;9.02;7.55;;;;;;;;;;4977156;28;20047;-76
2023/03/17 13:20:41;;;;;;;7.72;6.68;;;;;;;;;;4976724;28;20059;-77
2023/03/17 13:23:10;;;;;;;9.23;7.00;;;;;;;;;;4992281;28;20058;-77
2023/03/17 13:25:44;;;;;;;12.07;8.02;;;;;;;;;;4992166;28;20046;-77
2023/03/17 13:28:11;;;;;;;9.68;8.00;;;;;;;;;;4977259;28;20054;-77
2023/03/17 13:30:37;;;;;;;10.68;7.38;;;;;;;;;;4978121;28;20117;-77
2023/03/17 13:33:12;;;;;;;11.10;6.68;;;;;;;;;;5009060;28;20074;-77
2023/03/17 13:35:38;;;;;;;8.70;7.25;;;;;;;;;;4977037;28;20035;-77
2023/03/17 13:38:16;;;;;;;9.55;7.00;;;;;;;;;;4976947;28;20105;-77
2023/03/17 13:40:42;;;;;;;8.98;7.53;;;;;;;;;;4976847;28;20101;-77
2023/03/17 13:43:27;;;;;;;9.40;7.38;;;;;;;;;;4984864;28;20038;-76
2023/03/17 13:45:55;;;;;;;9.43;7.10;;;;;;;;;;4995193;28;20047;-76
2023/03/17 13:48:32;;;;;;;11.20;7.75;;;;;;;;;;4979400;28;20050;-77
2023/03/17 13:51:10;;;;;;;9.45;7.50;;;;;;;;;;4957645;28;20047;-76
2023/03/17 13:53:40;;;;;;;8.98;7.57;;;;;;;;;;4965319;28;20437;-77
2023/03/17 13:56:13;;;;;;;10.43;7.40;;;;;;;;;;4978714;28;20494;-77
2023/03/17 13:59:04;;;;;;;9.27;7.13;;;;;;;;;;4977064;28;20125;-77
2023/03/17 14:01:34;;;;;;;11.00;7.43;;;;;;;;;;4975901;28;20130;-76
2023/03/17 14:04:02;;;;;;;9.43;7.75;;;;;;;;;;4976909;28;20078;-77
2023/03/17 14:06:30;;;;;;;10.23;7.38;;;;;;;;;;4976709;28;20038;-77
2023/03/17 14:09:07;;;;;;;11.32;7.75;;;;;;;;;;4976331;28;20051;-76
2023/03/17 14:11:38;;;;;;;8.77;7.25;;;;;;;;;;4976490;28;20062;-76
2023/03/17 14:14:04;;;;;;;10.20;7.47;;;;;;;;;;4976780;28;20125;-76
2023/03/17 14:16:36;;;;;;;11.15;7.22;;;;;;;;;;4975804;28;20051;-76
2023/03/17 14:19:17;;;;;;;11.20;7.70;;;;;;;;;;4972381;28;20074;-76
2023/03/17 14:21:44;;;;;;;11.63;8.23;;;;;;;;;;4965843;28;20058;-76
2023/03/17 14:24:18;;;;;;;11.23;7.80;;;;;;;;;;4971386;28;20054;-76
2023/03/17 14:26:47;;;;;;;11.77;7.97;;;;;;;;;;4976298;28;20390;-76
2023/03/17 14:29:14;;;;;;;10.05;7.35;;;;;;;;;;4975768;28;20047;-76
2023/03/17 14:31:41;;;;;;;9.57;7.75;;;;;;;;;;4973460;28;20052;-76
2023/03/17 14:34:14;;;;;;;11.60;7.47;;;;;;;;;;4995701;28;20046;-77
2023/03/17 14:36:40;;;;;;;9.75;7.82;;;;;;;;;;4985792;28;20055;-77
2023/03/17 14:39:07;;;;;;;13.23;8.65;;;;;;;;;;4975025;28;20097;-76
2023/03/17 14:41:34;;;;;;;8.95;7.15;;;;;;;;;;4974415;28;20474;-77
2023/03/17 14:44:01;;;;;;;9.88;7.90;;;;;;;;;;4975796;28;20456;-77
2023/03/17 14:46:32;;;;;;;9.25;7.30;;;;;;;;;;4975559;28;20508;-77
2023/03/17 14:49:14;;;;;;;9.27;7.47;;;;;;;;;;4975537;28;20046;-77